sensor_id;sensor_type;location;lat;lon;timestamp;pressure;altitude;pressure_sealevel;temperature;humidity
16664;BME280;8445;51.270;9.434;2023-04-25T00:02:20;98692.66;;;3.91;56.91
16664;BME280;8445;51.270;9.434;2023-04-25T00:04:45;98699.88;;;4.02;56.17
16664;BME280;8445;51.270;9.434;2023-04-25T00:07:14;98703.91;;;4.08;56.99
16664;BME280;8445;51.270;9.434;2023-04-25T00:09:39;98700.19;;;4.12;56.18
16664;BME280;8445;51.270;9.434;2023-04-25T00:12:05;98702.22;;;4.07;56.07
16664;BME280;8445;51.270;9.434;2023-04-25T00:14:31;98702.97;;;4.09;55.95
16664;BME280;8445;51.270;9.434;2023-04-25T00:17:01;98705.31;;;4.13;56.54
16664;BME280;8445;51.270;9.434;2023-04-25T00:19:31;98702.97;;;4.09;56.92
16664;BME280;8445;51.270;9.434;2023-04-25T00:21:59;98704.09;;;4.05;56.31
16664;BME280;8445;51.270;9.434;2023-04-25T00:24:30;98709.50;;;4.02;56.28
16664;BME280;8445;51.270;9.434;2023-04-25T00:26:58;98707.72;;;4.02;56.27
16664;BME280;8445;51.270;9.434;2023-04-25T00:29:26;98710.81;;;3.94;55.83
16664;BME280;8445;51.270;9.434;2023-04-25T00:31:53;98707.63;;;3.89;55.94
16664;BME280;8445;51.270;9.434;2023-04-25T00:34:24;98709.25;;;3.76;56.75
16664;BME280;8445;51.270;9.434;2023-04-25T00:36:50;98705.59;;;3.64;56.19
16664;BME280;8445;51.270;9.434;2023-04-25T00:39:17;98697.94;;;3.61;55.77
16664;BME280;8445;51.270;9.434;2023-04-25T00:41:45;98703.22;;;3.59;55.91
16664;BME280;8445;51.270;9.434;2023-04-25T00:44:12;98708.56;;;3.58;56.51
16664;BME280;8445;51.270;9.434;2023-04-25T00:46:39;98706.59;;;3.47;56.25
16664;BME280;8445;51.270;9.434;2023-04-25T00:49:06;98697.41;;;3.39;56.66
16664;BME280;8445;51.270;9.434;2023-04-25T00:51:34;98701.31;;;3.32;57.15
16664;BME280;8445;51.270;9.434;2023-04-25T00:54:01;98703.31;;;3.27;57.26
16664;BME280;8445;51.270;9.434;2023-04-25T00:56:28;98701.06;;;3.21;56.61
16664;BME280;8445;51.270;9.434;2023-04-25T00:58:54;98691.63;;;3.18;57.42
16664;BME280;8445;51.270;9.434;2023-04-25T01:01:22;98692.22;;;3.23;57.15
16664;BME280;8445;51.270;9.434;2023-04-25T01:03:49;98693.75;;;3.42;58.31
16664;BME280;8445;51.270;9.434;2023-04-25T01:06:17;98695.19;;;3.48;56.94
16664;BME280;8445;51.270;9.434;2023-04-25T01:08:44;98694.81;;;3.54;58.03
16664;BME280;8445;51.270;9.434;2023-04-25T01:11:11;98702.28;;;3.46;57.30
16664;BME280;8445;51.270;9.434;2023-04-25T01:13:40;98699.16;;;3.39;56.98
16664;BME280;8445;51.270;9.434;2023-04-25T01:16:07;98697.22;;;3.43;57.35
16664;BME280;8445;51.270;9.434;2023-04-25T01:18:34;98694.09;;;3.36;56.83
16664;BME280;8445;51.270;9.434;2023-04-25T01:21:13;98697.66;;;3.35;57.84
16664;BME280;8445;51.270;9.434;2023-04-25T01:23:41;98695.13;;;3.33;57.71
16664;BME280;8445;51.270;9.434;2023-04-25T01:26:11;98684.09;;;3.28;58.21
16664;BME280;8445;51.270;9.434;2023-04-25T01:28:38;98687.91;;;3.22;57.33
16664;BME280;8445;51.270;9.434;2023-04-25T01:31:07;98688.50;;;3.11;57.45
16664;BME280;8445;51.270;9.434;2023-04-25T01:33:33;98681.94;;;3.04;57.69
16664;BME280;8445;51.270;9.434;2023-04-25T01:35:59;98677.91;;;2.99;58.15
16664;BME280;8445;51.270;9.434;2023-04-25T01:38:25;98681.75;;;3.07;57.56
16664;BME280;8445;51.270;9.434;2023-04-25T01:40:51;98680.44;;;3.16;58.93
16664;BME280;8445;51.270;9.434;2023-04-25T01:43:18;98686.31;;;3.20;58.19
16664;BME280;8445;51.270;9.434;2023-04-25T01:45:44;98685.97;;;3.26;58.38
16664;BME280;8445;51.270;9.434;2023-04-25T01:48:12;98677.38;;;3.24;58.28
16664;BME280;8445;51.270;9.434;2023-04-25T01:50:39;98686.13;;;3.23;58.00
16664;BME280;8445;51.270;9.434;2023-04-25T01:53:05;98683.69;;;3.20;57.81
16664;BME280;8445;51.270;9.434;2023-04-25T01:55:31;98681.06;;;3.20;58.51
16664;BME280;8445;51.270;9.434;2023-04-25T01:58:04;98687.81;;;3.24;58.38
16664;BME280;8445;51.270;9.434;2023-04-25T02:01:02;98697.53;;;3.22;58.16
16664;BME280;8445;51.270;9.434;2023-04-25T02:03:33;98707.38;;;3.17;57.78
16664;BME280;8445;51.270;9.434;2023-04-25T02:06:00;98716.66;;;3.06;58.06
16664;BME280;8445;51.270;9.434;2023-04-25T02:08:26;98708.78;;;2.92;58.17
16664;BME280;8445;51.270;9.434;2023-04-25T02:10:54;98708.41;;;2.82;58.79
16664;BME280;8445;51.270;9.434;2023-04-25T02:13:19;98708.09;;;2.72;58.79
16664;BME280;8445;51.270;9.434;2023-04-25T02:16:05;98705.69;;;2.51;58.72
16664;BME280;8445;51.270;9.434;2023-04-25T02:18:30;98709.97;;;2.36;58.93
16664;BME280;8445;51.270;9.434;2023-04-25T02:20:58;98707.78;;;2.29;59.24
16664;BME280;8445;51.270;9.434;2023-04-25T02:23:24;98712.72;;;2.17;58.85
16664;BME280;8445;51.270;9.434;2023-04-25T02:25:49;98703.59;;;2.08;59.61
16664;BME280;8445;51.270;9.434;2023-04-25T02:28:17;98707.53;;;2.00;59.30
16664;BME280;8445;51.270;9.434;2023-04-25T02:30:43;98701.84;;;1.91;59.33
16664;BME280;8445;51.270;9.434;2023-04-25T02:33:08;98713.91;;;1.94;60.69
16664;BME280;8445;51.270;9.434;2023-04-25T02:35:35;98706.41;;;1.88;60.29
16664;BME280;8445;51.270;9.434;2023-04-25T02:38:00;98704.94;;;1.82;59.74
16664;BME280;8445;51.270;9.434;2023-04-25T02:40:26;98705.78;;;1.83;60.13
16664;BME280;8445;51.270;9.434;2023-04-25T02:42:53;98698.53;;;1.72;59.80
16664;BME280;8445;51.270;9.434;2023-04-25T02:45:18;98703.03;;;1.68;59.72
16664;BME280;8445;51.270;9.434;2023-04-25T02:47:44;98705.94;;;1.62;59.42
16664;BME280;8445;51.270;9.434;2023-04-25T02:50:10;98713.72;;;1.63;59.82
16664;BME280;8445;51.270;9.434;2023-04-25T02:52:36;98708.03;;;1.73;59.53
16664;BME280;8445;51.270;9.434;2023-04-25T02:55:12;98704.31;;;1.95;59.14
16664;BME280;8445;51.270;9.434;2023-04-25T02:57:38;98698.06;;;2.15;60.12
16664;BME280;8445;51.270;9.434;2023-04-25T03:00:04;98700.56;;;2.34;60.58
16664;BME280;8445;51.270;9.434;2023-04-25T03:02:30;98712.78;;;2.49;60.68
16664;BME280;8445;51.270;9.434;2023-04-25T03:04:55;98699.31;;;2.73;60.22
16664;BME280;8445;51.270;9.434;2023-04-25T03:07:21;98700.75;;;2.95;59.83
16664;BME280;8445;51.270;9.434;2023-04-25T03:09:47;98692.47;;;3.19;60.08
16664;BME280;8445;51.270;9.434;2023-04-25T03:12:13;98707.69;;;3.43;60.22
16664;BME280;8445;51.270;9.434;2023-04-25T03:14:38;98696.50;;;3.55;60.11
16664;BME280;8445;51.270;9.434;2023-04-25T03:17:04;98699.69;;;3.60;60.07
16664;BME280;8445;51.270;9.434;2023-04-25T03:19:29;98695.31;;;3.61;60.21
16664;BME280;8445;51.270;9.434;2023-04-25T03:21:55;98698.94;;;3.58;59.27
16664;BME280;8445;51.270;9.434;2023-04-25T03:24:21;98695.50;;;3.58;60.39
16664;BME280;8445;51.270;9.434;2023-04-25T03:26:47;98698.00;;;3.59;60.77
16664;BME280;8445;51.270;9.434;2023-04-25T03:29:12;98700.19;;;3.67;60.18
16664;BME280;8445;51.270;9.434;2023-04-25T03:31:39;98695.06;;;3.80;60.80
16664;BME280;8445;51.270;9.434;2023-04-25T03:34:04;98705.56;;;3.94;60.05
16664;BME280;8445;51.270;9.434;2023-04-25T03:36:30;98706.41;;;4.09;60.16
16664;BME280;8445;51.270;9.434;2023-04-25T03:38:55;98705.00;;;4.18;59.93
16664;BME280;8445;51.270;9.434;2023-04-25T03:41:21;98702.13;;;4.23;60.18
16664;BME280;8445;51.270;9.434;2023-04-25T03:43:51;98701.66;;;4.30;60.52
16664;BME280;8445;51.270;9.434;2023-04-25T03:46:17;98708.38;;;4.35;60.46
16664;BME280;8445;51.270;9.434;2023-04-25T03:48:42;98710.81;;;4.38;60.18
16664;BME280;8445;51.270;9.434;2023-04-25T03:51:11;98712.31;;;4.42;60.17
16664;BME280;8445;51.270;9.434;2023-04-25T03:53:40;98715.31;;;4.50;60.60
16664;BME280;8445;51.270;9.434;2023-04-25T03:56:18;98714.06;;;4.56;61.15
16664;BME280;8445;51.270;9.434;2023-04-25T03:58:45;98710.06;;;4.65;60.34
16664;BME280;8445;51.270;9.434;2023-04-25T04:01:15;98713.69;;;4.77;60.64
16664;BME280;8445;51.270;9.434;2023-04-25T04:03:41;98719.09;;;4.88;60.67
16664;BME280;8445;51.270;9.434;2023-04-25T04:06:07;98718.72;;;4.94;60.63
16664;BME280;8445;51.270;9.434;2023-04-25T04:08:36;98724.19;;;5.04;60.45
16664;BME280;8445;51.270;9.434;2023-04-25T04:11:02;98723.63;;;5.13;60.81
16664;BME280;8445;51.270;9.434;2023-04-25T04:13:28;98726.59;;;5.22;61.13
16664;BME280;8445;51.270;9.434;2023-04-25T04:15:54;98720.97;;;5.28;60.70
16664;BME280;8445;51.270;9.434;2023-04-25T04:18:21;98728.59;;;5.31;60.49
16664;BME280;8445;51.270;9.434;2023-04-25T04:20:46;98723.81;;;5.38;60.41
16664;BME280;8445;51.270;9.434;2023-04-25T04:23:12;98724.16;;;5.46;60.45
16664;BME280;8445;51.270;9.434;2023-04-25T04:25:37;98726.06;;;5.57;60.50
16664;BME280;8445;51.270;9.434;2023-04-25T04:28:25;98734.06;;;5.68;60.28
16664;BME280;8445;51.270;9.434;2023-04-25T04:31:11;98736.84;;;5.79;60.20
16664;BME280;8445;51.270;9.434;2023-04-25T04:33:37;98732.63;;;5.90;60.20
16664;BME280;8445;51.270;9.434;2023-04-25T04:36:04;98727.63;;;6.00;59.97
16664;BME280;8445;51.270;9.434;2023-04-25T04:38:33;98741.94;;;6.08;60.26
16664;BME280;8445;51.270;9.434;2023-04-25T04:41:01;98742.13;;;6.18;60.19
16664;BME280;8445;51.270;9.434;2023-04-25T04:43:46;98738.13;;;6.26;60.36
16664;BME280;8445;51.270;9.434;2023-04-25T04:46:37;98750.97;;;6.30;60.20
16664;BME280;8445;51.270;9.434;2023-04-25T04:49:19;98748.88;;;6.35;60.40
16664;BME280;8445;51.270;9.434;2023-04-25T04:51:54;98743.50;;;6.37;60.47
16664;BME280;8445;51.270;9.434;2023-04-25T04:54:52;98751.81;;;6.44;60.26
16664;BME280;8445;51.270;9.434;2023-04-25T04:57:42;98750.44;;;6.51;60.32
16664;BME280;8445;51.270;9.434;2023-04-25T05:00:34;98746.75;;;6.53;60.65
16664;BME280;8445;51.270;9.434;2023-04-25T05:03:11;98752.63;;;6.57;60.77
16664;BME280;8445;51.270;9.434;2023-04-25T05:06:12;98765.34;;;6.63;60.77
16664;BME280;8445;51.270;9.434;2023-04-25T05:08:47;98762.19;;;6.71;60.77
16664;BME280;8445;51.270;9.434;2023-04-25T05:11:41;98770.69;;;6.75;60.70
16664;BME280;8445;51.270;9.434;2023-04-25T05:14:18;98766.91;;;6.79;60.85
16664;BME280;8445;51.270;9.434;2023-04-25T05:16:48;98767.94;;;6.89;60.86
16664;BME280;8445;51.270;9.434;2023-04-25T05:19:43;98772.81;;;7.07;61.04
16664;BME280;8445;51.270;9.434;2023-04-25T05:22:27;98775.94;;;7.25;61.02
16664;BME280;8445;51.270;9.434;2023-04-25T05:25:09;98779.69;;;7.34;61.02
16664;BME280;8445;51.270;9.434;2023-04-25T05:27:53;98780.88;;;7.30;60.87
16664;BME280;8445;51.270;9.434;2023-04-25T05:30:39;98783.22;;;7.21;60.64
16664;BME280;8445;51.270;9.434;2023-04-25T05:33:13;98786.19;;;7.17;60.50
16664;BME280;8445;51.270;9.434;2023-04-25T05:35:38;98781.00;;;7.15;60.74
16664;BME280;8445;51.270;9.434;2023-04-25T05:38:04;98783.78;;;7.14;60.91
16664;BME280;8445;51.270;9.434;2023-04-25T05:40:48;98781.97;;;7.14;61.70
16664;BME280;8445;51.270;9.434;2023-04-25T05:43:36;98785.75;;;7.23;61.13
16664;BME280;8445;51.270;9.434;2023-04-25T05:46:15;98780.88;;;7.30;61.47
16664;BME280;8445;51.270;9.434;2023-04-25T05:49:15;98787.38;;;7.37;61.26
16664;BME280;8445;51.270;9.434;2023-04-25T05:51:58;98793.44;;;7.50;61.67
16664;BME280;8445;51.270;9.434;2023-04-25T05:54:44;98796.34;;;7.59;61.52
16664;BME280;8445;51.270;9.434;2023-04-25T05:57:22;98809.28;;;7.62;62.12
16664;BME280;8445;51.270;9.434;2023-04-25T05:59:47;98808.34;;;7.63;60.90
16664;BME280;8445;51.270;9.434;2023-04-25T06:02:13;98805.72;;;7.63;61.61
16664;BME280;8445;51.270;9.434;2023-04-25T06:04:40;98811.91;;;7.62;61.38
16664;BME280;8445;51.270;9.434;2023-04-25T06:07:05;98810.03;;;7.64;61.32
16664;BME280;8445;51.270;9.434;2023-04-25T06:09:31;98817.91;;;7.64;61.80
16664;BME280;8445;51.270;9.434;2023-04-25T06:11:57;98821.25;;;7.66;61.58
16664;BME280;8445;51.270;9.434;2023-04-25T06:14:22;98817.91;;;7.64;61.36
16664;BME280;8445;51.270;9.434;2023-04-25T06:16:49;98831.75;;;7.54;62.15
16664;BME280;8445;51.270;9.434;2023-04-25T06:19:14;98832.53;;;7.31;62.92
16664;BME280;8445;51.270;9.434;2023-04-25T06:21:42;98836.88;;;7.19;62.33
16664;BME280;8445;51.270;9.434;2023-04-25T06:24:08;98830.78;;;7.18;62.04
16664;BME280;8445;51.270;9.434;2023-04-25T06:26:34;98836.97;;;7.17;62.07
16664;BME280;8445;51.270;9.434;2023-04-25T06:28:59;98842.97;;;7.19;62.05
16664;BME280;8445;51.270;9.434;2023-04-25T06:31:25;98839.84;;;7.14;62.74
16664;BME280;8445;51.270;9.434;2023-04-25T06:33:51;98847.19;;;7.09;62.29
16664;BME280;8445;51.270;9.434;2023-04-25T06:36:22;98840.03;;;7.11;62.34
16664;BME280;8445;51.270;9.434;2023-04-25T06:38:52;98846.16;;;7.11;62.13
16664;BME280;8445;51.270;9.434;2023-04-25T06:41:20;98850.16;;;7.04;63.17
16664;BME280;8445;51.270;9.434;2023-04-25T06:43:46;98849.56;;;7.01;63.47
16664;BME280;8445;51.270;9.434;2023-04-25T06:46:14;98851.09;;;7.16;63.28
16664;BME280;8445;51.270;9.434;2023-04-25T06:48:43;98849.66;;;7.49;63.58
16664;BME280;8445;51.270;9.434;2023-04-25T06:51:10;98849.16;;;7.68;63.64
16664;BME280;8445;51.270;9.434;2023-04-25T06:53:36;98853.97;;;7.99;63.38
16664;BME280;8445;51.270;9.434;2023-04-25T06:56:04;98851.44;;;8.22;63.56
16664;BME280;8445;51.270;9.434;2023-04-25T06:58:43;98861.72;;;8.25;62.91
16664;BME280;8445;51.270;9.434;2023-04-25T07:01:18;98864.78;;;8.43;62.72
16664;BME280;8445;51.270;9.434;2023-04-25T07:03:44;98868.78;;;8.49;62.60
16664;BME280;8445;51.270;9.434;2023-04-25T07:06:14;98878.53;;;8.35;62.44
16664;BME280;8445;51.270;9.434;2023-04-25T07:08:40;98869.16;;;8.31;62.27
16664;BME280;8445;51.270;9.434;2023-04-25T07:11:06;98866.97;;;8.25;62.31
16664;BME280;8445;51.270;9.434;2023-04-25T07:13:31;98881.59;;;8.18;62.53
16664;BME280;8445;51.270;9.434;2023-04-25T07:15:57;98890.78;;;8.12;62.52
16664;BME280;8445;51.270;9.434;2023-04-25T07:18:23;98885.41;;;8.13;62.96
16664;BME280;8445;51.270;9.434;2023-04-25T07:20:49;98886.00;;;8.17;62.83
16664;BME280;8445;51.270;9.434;2023-04-25T07:23:14;98884.47;;;8.26;62.81
16664;BME280;8445;51.270;9.434;2023-04-25T07:25:40;98879.69;;;8.55;62.94
16664;BME280;8445;51.270;9.434;2023-04-25T07:28:07;98873.66;;;9.00;63.38
16664;BME280;8445;51.270;9.434;2023-04-25T07:30:32;98884.19;;;9.46;63.56
16664;BME280;8445;51.270;9.434;2023-04-25T07:33:02;98886.03;;;9.89;62.32
16664;BME280;8445;51.270;9.434;2023-04-25T07:35:28;98891.47;;;10.09;62.53
16664;BME280;8445;51.270;9.434;2023-04-25T07:37:53;98896.22;;;10.27;62.53
16664;BME280;8445;51.270;9.434;2023-04-25T07:40:19;98892.81;;;10.36;62.61
16664;BME280;8445;51.270;9.434;2023-04-25T07:42:51;98892.75;;;10.59;61.35
16664;BME280;8445;51.270;9.434;2023-04-25T07:45:23;98894.44;;;10.60;62.03
16664;BME280;8445;51.270;9.434;2023-04-25T07:47:49;98898.84;;;10.59;61.12
16664;BME280;8445;51.270;9.434;2023-04-25T07:50:15;98906.53;;;10.83;61.77
16664;BME280;8445;51.270;9.434;2023-04-25T07:52:41;98897.34;;;11.09;60.22
16664;BME280;8445;51.270;9.434;2023-04-25T07:55:16;98905.59;;;11.16;60.70
16664;BME280;8445;51.270;9.434;2023-04-25T07:58:02;98897.97;;;11.32;61.34
16664;BME280;8445;51.270;9.434;2023-04-25T08:00:29;98900.19;;;11.68;61.07
16664;BME280;8445;51.270;9.434;2023-04-25T08:03:14;98898.03;;;11.93;60.58
16664;BME280;8445;51.270;9.434;2023-04-25T08:05:41;98904.75;;;12.07;59.24
16664;BME280;8445;51.270;9.434;2023-04-25T08:08:06;98913.13;;;12.02;59.44
16664;BME280;8445;51.270;9.434;2023-04-25T08:10:32;98918.28;;;12.04;58.49
16664;BME280;8445;51.270;9.434;2023-04-25T08:13:01;98916.88;;;11.99;56.99
16664;BME280;8445;51.270;9.434;2023-04-25T08:15:28;98912.00;;;12.05;58.45
16664;BME280;8445;51.270;9.434;2023-04-25T08:17:53;98926.75;;;11.97;58.76
16664;BME280;8445;51.270;9.434;2023-04-25T08:20:20;98935.09;;;11.83;57.19
16664;BME280;8445;51.270;9.434;2023-04-25T08:22:45;98935.94;;;11.42;57.72
16664;BME280;8445;51.270;9.434;2023-04-25T08:25:22;98941.53;;;11.18;56.34
16664;BME280;8445;51.270;9.434;2023-04-25T08:27:47;98941.63;;;10.86;57.44
16664;BME280;8445;51.270;9.434;2023-04-25T08:30:14;98952.06;;;10.66;56.94
16664;BME280;8445;51.270;9.434;2023-04-25T08:32:44;98965.75;;;10.38;56.82
16664;BME280;8445;51.270;9.434;2023-04-25T08:35:41;98979.09;;;9.93;56.90
16664;BME280;8445;51.270;9.434;2023-04-25T08:38:06;98990.75;;;9.79;57.41
16664;BME280;8445;51.270;9.434;2023-04-25T08:40:37;98987.75;;;9.72;57.15
16664;BME280;8445;51.270;9.434;2023-04-25T08:43:19;98982.84;;;9.79;58.04
16664;BME280;8445;51.270;9.434;2023-04-25T08:45:49;98989.16;;;10.11;58.29
16664;BME280;8445;51.270;9.434;2023-04-25T08:48:41;98992.31;;;10.48;57.93
16664;BME280;8445;51.270;9.434;2023-04-25T08:51:10;98989.66;;;10.81;58.69
16664;BME280;8445;51.270;9.434;2023-04-25T08:53:43;98982.63;;;11.44;58.88
16664;BME280;8445;51.270;9.434;2023-04-25T08:56:12;98988.19;;;12.03;58.31
16664;BME280;8445;51.270;9.434;2023-04-25T08:58:44;99003.91;;;12.55;57.95
16664;BME280;8445;51.270;9.434;2023-04-25T09:01:13;98987.41;;;12.90;57.38
16664;BME280;8445;51.270;9.434;2023-04-25T09:03:47;98985.13;;;13.15;57.38
16664;BME280;8445;51.270;9.434;2023-04-25T09:06:15;98999.63;;;13.31;57.05
16664;BME280;8445;51.270;9.434;2023-04-25T09:08:43;99002.00;;;13.54;57.49
16664;BME280;8445;51.270;9.434;2023-04-25T09:11:10;98999.25;;;13.73;57.13
16664;BME280;8445;51.270;9.434;2023-04-25T09:13:36;98999.09;;;14.03;57.39
16664;BME280;8445;51.270;9.434;2023-04-25T09:16:21;99004.00;;;14.26;56.58
16664;BME280;8445;51.270;9.434;2023-04-25T09:19:32;99004.25;;;14.32;49.09
16664;BME280;8445;51.270;9.434;2023-04-25T09:22:02;99014.34;;;14.29;53.75
16664;BME280;8445;51.270;9.434;2023-04-25T09:24:43;99022.31;;;14.11;54.26
16664;BME280;8445;51.270;9.434;2023-04-25T09:27:20;99012.41;;;14.03;53.37
16664;BME280;8445;51.270;9.434;2023-04-25T09:29:59;99013.63;;;13.81;53.59
16664;BME280;8445;51.270;9.434;2023-04-25T09:32:56;99020.03;;;13.40;51.52
16664;BME280;8445;51.270;9.434;2023-04-25T09:35:25;99028.25;;;13.57;53.77
16664;BME280;8445;51.270;9.434;2023-04-25T09:37:56;99019.09;;;13.79;52.70
16664;BME280;8445;51.270;9.434;2023-04-25T09:40:47;99016.78;;;13.94;52.58
16664;BME280;8445;51.270;9.434;2023-04-25T09:43:33;99030.38;;;13.53;50.99
16664;BME280;8445;51.270;9.434;2023-04-25T09:45:58;99036.00;;;13.01;50.00
16664;BME280;8445;51.270;9.434;2023-04-25T09:48:27;99036.28;;;12.58;50.62
16664;BME280;8445;51.270;9.434;2023-04-25T09:51:08;99036.56;;;12.55;49.86
16664;BME280;8445;51.270;9.434;2023-04-25T09:53:35;99037.94;;;12.40;50.87
16664;BME280;8445;51.270;9.434;2023-04-25T09:56:11;99053.44;;;11.94;50.69
16664;BME280;8445;51.270;9.434;2023-04-25T09:58:39;99059.31;;;11.66;49.64
16664;BME280;8445;51.270;9.434;2023-04-25T10:01:08;99060.00;;;11.68;50.48
16664;BME280;8445;51.270;9.434;2023-04-25T10:03:43;99063.38;;;12.01;51.56
16664;BME280;8445;51.270;9.434;2023-04-25T10:06:28;99059.28;;;12.28;51.94
16664;BME280;8445;51.270;9.434;2023-04-25T10:08:56;99064.50;;;12.50;51.01
16664;BME280;8445;51.270;9.434;2023-04-25T10:11:26;99052.38;;;12.57;51.26
16664;BME280;8445;51.270;9.434;2023-04-25T10:13:56;99055.56;;;13.00;51.19
16664;BME280;8445;51.270;9.434;2023-04-25T10:16:21;99064.66;;;13.07;49.47
16664;BME280;8445;51.270;9.434;2023-04-25T10:18:49;99060.06;;;12.70;49.69
16664;BME280;8445;51.270;9.434;2023-04-25T10:21:18;99057.94;;;12.64;48.71
16664;BME280;8445;51.270;9.434;2023-04-25T10:23:50;99057.84;;;12.95;48.92
16664;BME280;8445;51.270;9.434;2023-04-25T10:26:20;99059.50;;;13.15;48.62
16664;BME280;8445;51.270;9.434;2023-04-25T10:29:01;99063.97;;;13.05;47.67
16664;BME280;8445;51.270;9.434;2023-04-25T10:31:29;99065.25;;;12.81;48.46
16664;BME280;8445;51.270;9.434;2023-04-25T10:33:55;99070.50;;;12.62;47.96
16664;BME280;8445;51.270;9.434;2023-04-25T10:36:22;99076.22;;;12.47;47.72
16664;BME280;8445;51.270;9.434;2023-04-25T10:38:49;99074.38;;;12.38;47.55
16664;BME280;8445;51.270;9.434;2023-04-25T10:41:22;99083.38;;;12.15;47.73
16664;BME280;8445;51.270;9.434;2023-04-25T10:43:49;99092.47;;;12.13;47.69
16664;BME280;8445;51.270;9.434;2023-04-25T10:46:22;99086.41;;;12.01;47.90
16664;BME280;8445;51.270;9.434;2023-04-25T10:48:51;99090.34;;;12.07;48.70
16664;BME280;8445;51.270;9.434;2023-04-25T10:53:45;99094.13;;;12.74;48.39
16664;BME280;8445;51.270;9.434;2023-04-25T10:56:16;99095.56;;;12.88;48.61
16664;BME280;8445;51.270;9.434;2023-04-25T10:58:45;99089.97;;;13.11;47.98
16664;BME280;8445;51.270;9.434;2023-04-25T11:01:16;99088.84;;;13.24;47.03
16664;BME280;8445;51.270;9.434;2023-04-25T11:03:44;99092.72;;;13.29;47.58
16664;BME280;8445;51.270;9.434;2023-04-25T11:06:23;99090.25;;;13.47;47.01
16664;BME280;8445;51.270;9.434;2023-04-25T11:08:52;99113.09;;;13.88;47.42
16664;BME280;8445;51.270;9.434;2023-04-25T11:11:18;99097.38;;;13.94;47.39
16664;BME280;8445;51.270;9.434;2023-04-25T11:13:47;99098.94;;;14.25;46.62
16664;BME280;8445;51.270;9.434;2023-04-25T11:16:13;99103.00;;;14.47;46.90
16664;BME280;8445;51.270;9.434;2023-04-25T11:18:44;99101.41;;;14.64;47.00
16664;BME280;8445;51.270;9.434;2023-04-25T11:21:10;99091.91;;;14.80;45.92
16664;BME280;8445;51.270;9.434;2023-04-25T11:23:36;99098.44;;;14.67;46.49
16664;BME280;8445;51.270;9.434;2023-04-25T11:26:05;99088.56;;;14.78;46.24
16664;BME280;8445;51.270;9.434;2023-04-25T11:28:30;99097.06;;;14.63;45.53
16664;BME280;8445;51.270;9.434;2023-04-25T11:30:56;99107.50;;;14.19;44.41
16664;BME280;8445;51.270;9.434;2023-04-25T11:33:25;99098.63;;;13.43;43.89
16664;BME280;8445;51.270;9.434;2023-04-25T11:35:53;99093.03;;;12.97;44.81
16664;BME280;8445;51.270;9.434;2023-04-25T11:38:20;99111.88;;;12.84;44.82
16664;BME280;8445;51.270;9.434;2023-04-25T11:40:50;99112.97;;;12.52;43.77
16664;BME280;8445;51.270;9.434;2023-04-25T11:43:20;99111.91;;;12.23;45.64
16664;BME280;8445;51.270;9.434;2023-04-25T11:45:49;99119.19;;;12.41;44.87
16664;BME280;8445;51.270;9.434;2023-04-25T11:48:20;99126.63;;;12.47;45.16
16664;BME280;8445;51.270;9.434;2023-04-25T11:50:49;99116.47;;;12.62;44.64
16664;BME280;8445;51.270;9.434;2023-04-25T11:53:18;99122.66;;;12.82;44.83
16664;BME280;8445;51.270;9.434;2023-04-25T11:55:47;99133.69;;;12.97;44.51
16664;BME280;8445;51.270;9.434;2023-04-25T11:58:15;99124.63;;;13.10;45.05
16664;BME280;8445;51.270;9.434;2023-04-25T12:00:42;99120.16;;;13.30;43.93
16664;BME280;8445;51.270;9.434;2023-04-25T12:03:09;99129.94;;;13.39;44.30
16664;BME280;8445;51.270;9.434;2023-04-25T12:05:34;99133.56;;;13.58;44.53
16664;BME280;8445;51.270;9.434;2023-04-25T12:08:14;99132.41;;;13.90;43.58
16664;BME280;8445;51.270;9.434;2023-04-25T12:10:42;99133.78;;;14.32;44.18
16664;BME280;8445;51.270;9.434;2023-04-25T12:15:43;99128.28;;;14.89;43.82
16664;BME280;8445;51.270;9.434;2023-04-25T12:18:08;99133.03;;;14.95;43.85
16664;BME280;8445;51.270;9.434;2023-04-25T12:20:35;99133.88;;;14.96;43.92
16664;BME280;8445;51.270;9.434;2023-04-25T12:23:05;99133.44;;;14.73;42.50
16664;BME280;8445;51.270;9.434;2023-04-25T12:25:42;99139.44;;;14.47;42.35
16664;BME280;8445;51.270;9.434;2023-04-25T12:30:54;99129.38;;;13.65;42.50
16664;BME280;8445;51.270;9.434;2023-04-25T12:33:21;99131.41;;;13.91;43.28
16664;BME280;8445;51.270;9.434;2023-04-25T12:35:47;99137.38;;;14.41;43.14
16664;BME280;8445;51.270;9.434;2023-04-25T12:38:21;99135.50;;;14.51;40.19
16664;BME280;8445;51.270;9.434;2023-04-25T12:40:46;99144.19;;;14.53;41.60
16664;BME280;8445;51.270;9.434;2023-04-25T12:43:12;99140.13;;;14.21;42.35
16664;BME280;8445;51.270;9.434;2023-04-25T12:45:37;99139.38;;;13.91;42.31
16664;BME280;8445;51.270;9.434;2023-04-25T12:48:02;99139.34;;;13.43;41.92
16664;BME280;8445;51.270;9.434;2023-04-25T12:50:28;99145.31;;;13.06;41.23
16664;BME280;8445;51.270;9.434;2023-04-25T12:52:53;99147.97;;;12.45;41.39
16664;BME280;8445;51.270;9.434;2023-04-25T12:55:19;99158.47;;;12.16;42.58
16664;BME280;8445;51.270;9.434;2023-04-25T12:57:44;99156.19;;;12.11;42.55
16664;BME280;8445;51.270;9.434;2023-04-25T13:00:10;99163.84;;;12.05;42.21
16664;BME280;8445;51.270;9.434;2023-04-25T13:02:39;99166.66;;;12.03;41.60
16664;BME280;8445;51.270;9.434;2023-04-25T13:05:05;99159.25;;;11.85;41.78
16664;BME280;8445;51.270;9.434;2023-04-25T13:07:30;99161.97;;;11.95;41.95
16664;BME280;8445;51.270;9.434;2023-04-25T13:09:56;99150.34;;;12.08;41.64
16664;BME280;8445;51.270;9.434;2023-04-25T13:12:21;99141.72;;;12.15;42.40
16664;BME280;8445;51.270;9.434;2023-04-25T13:14:47;99161.00;;;12.58;43.21
16664;BME280;8445;51.270;9.434;2023-04-25T13:17:12;99152.59;;;13.24;42.60
16664;BME280;8445;51.270;9.434;2023-04-25T13:19:38;99151.78;;;13.43;42.25
16664;BME280;8445;51.270;9.434;2023-04-25T13:22:04;99160.84;;;13.60;41.89
16664;BME280;8445;51.270;9.434;2023-04-25T13:24:29;99159.31;;;13.57;41.76
16664;BME280;8445;51.270;9.434;2023-04-25T13:26:55;99143.94;;;13.51;41.88
16664;BME280;8445;51.270;9.434;2023-04-25T13:29:20;99165.22;;;13.41;42.00
16664;BME280;8445;51.270;9.434;2023-04-25T13:31:46;99147.81;;;13.27;41.27
16664;BME280;8445;51.270;9.434;2023-04-25T13:34:11;99161.22;;;13.06;40.94
16664;BME280;8445;51.270;9.434;2023-04-25T13:36:38;99147.53;;;13.01;40.72
16664;BME280;8445;51.270;9.434;2023-04-25T13:39:03;99142.50;;;12.98;41.11
16664;BME280;8445;51.270;9.434;2023-04-25T13:41:30;99142.38;;;12.99;41.61